Time;durP1;ratioP1;P1;durP2;ratioP2;P2;SDS_P1;SDS_P2;PMS_P1;PMS_P2;Temp;Humidity;BMP_temperature;BMP_pressure;BME280_temperature;BME280_humidity;BME280_pressure;Samples;Min_cycle;Max_cycle;Signal;HPM_P1;HPM_P2
2024/04/08 00:01:33;;;;;;;8.45;1.70;;;;;;;;;;5378947;26;19996;-40
2024/04/08 00:04:00;;;;;;;6.55;1.73;;;;;;;;;;5379686;26;20366;-40
2024/04/08 00:06:27;;;;;;;9.00;1.92;;;;;;;;;;5379398;26;20015;-40
2024/04/08 00:08:54;;;;;;;12.63;2.00;;;;;;;;;;5378420;26;19999;-39
2024/04/08 00:11:21;;;;;;;4.18;1.67;;;;;;;;;;5356574;26;19996;-41
2024/04/08 00:13:48;;;;;;;7.50;2.20;;;;;;;;;;5359346;26;20343;-40
2024/04/08 00:16:15;;;;;;;9.80;2.17;;;;;;;;;;5368193;26;20016;-40
2024/04/08 00:18:42;;;;;;;7.57;2.05;;;;;;;;;;5345945;26;20005;-39
2024/04/08 00:21:09;;;;;;;8.77;1.83;;;;;;;;;;5376852;26;20014;-40
2024/04/08 00:23:37;;;;;;;8.48;2.25;;;;;;;;;;5378078;26;20032;-40
2024/04/08 00:26:04;;;;;;;6.65;1.80;;;;;;;;;;5377715;26;20004;-40
2024/04/08 00:28:33;;;;;;;15.38;1.98;;;;;;;;;;5357734;26;20011;-39
2024/04/08 00:31:04;;;;;;;11.25;2.15;;;;;;;;;;5378157;26;20015;-39
2024/04/08 00:33:35;;;;;;;7.10;1.90;;;;;;;;;;5355362;26;20016;-39
2024/04/08 00:36:02;;;;;;;8.15;2.15;;;;;;;;;;5378863;26;20016;-39
2024/04/08 00:38:29;;;;;;;4.90;1.73;;;;;;;;;;5379836;26;19996;-39
2024/04/08 00:41:05;;;;;;;6.05;1.77;;;;;;;;;;5359065;26;20008;-39
2024/04/08 00:43:33;;;;;;;13.77;1.92;;;;;;;;;;5363035;26;20016;-39
2024/04/08 00:46:01;;;;;;;8.25;1.63;;;;;;;;;;5376392;26;20008;-40
2024/04/08 00:48:28;;;;;;;9.45;1.60;;;;;;;;;;5376590;26;20019;-39
2024/04/08 00:50:55;;;;;;;8.82;1.60;;;;;;;;;;5374019;26;20024;-39
2024/04/08 00:53:24;;;;;;;12.23;2.40;;;;;;;;;;5371065;26;20442;-39
2024/04/08 00:55:52;;;;;;;6.95;1.45;;;;;;;;;;5358670;26;20378;-39
2024/04/08 00:58:19;;;;;;;4.63;1.42;;;;;;;;;;5356217;26;20001;-39
2024/04/08 01:00:46;;;;;;;10.23;1.42;;;;;;;;;;5379004;26;20040;-39
2024/04/08 01:03:14;;;;;;;8.80;1.30;;;;;;;;;;5377403;26;20138;-40
2024/04/08 01:05:41;;;;;;;9.63;1.23;;;;;;;;;;5377581;26;20338;-39
2024/04/08 01:08:08;;;;;;;6.20;1.67;;;;;;;;;;5374985;26;20019;-40
2024/04/08 01:10:35;;;;;;;9.00;1.13;;;;;;;;;;5375536;26;20008;-40
2024/04/08 01:13:02;;;;;;;4.40;1.10;;;;;;;;;;5362841;26;20000;-39
2024/04/08 01:15:30;;;;;;;7.13;1.65;;;;;;;;;;5378810;26;20020;-39
2024/04/08 01:17:57;;;;;;;6.57;1.27;;;;;;;;;;5378403;26;20008;-39
2024/04/08 01:20:24;;;;;;;8.90;1.33;;;;;;;;;;5378629;26;20023;-40
2024/04/08 01:22:54;;;;;;;9.68;1.30;;;;;;;;;;5368063;26;19997;-39
2024/04/08 01:25:21;;;;;;;17.30;2.05;;;;;;;;;;5374527;26;19996;-39
2024/04/08 01:27:48;;;;;;;5.80;1.33;;;;;;;;;;5358063;26;20340;-40
2024/04/08 01:30:21;;;;;;;5.85;1.60;;;;;;;;;;5367466;26;20000;-40
2024/04/08 01:32:49;;;;;;;10.10;1.42;;;;;;;;;;5364449;26;20008;-39
2024/04/08 01:35:17;;;;;;;5.45;1.10;;;;;;;;;;5363792;26;19997;-39
2024/04/08 01:37:44;;;;;;;5.28;1.10;;;;;;;;;;5378437;26;20446;-39
2024/04/08 01:40:11;;;;;;;5.07;1.42;;;;;;;;;;5364040;26;19997;-39
2024/04/08 01:42:38;;;;;;;6.43;1.40;;;;;;;;;;5372206;26;20001;-39
2024/04/08 01:45:05;;;;;;;7.47;1.85;;;;;;;;;;5374146;26;20861;-39
2024/04/08 01:47:32;;;;;;;6.93;1.30;;;;;;;;;;5362364;26;20007;-39
2024/04/08 01:49:59;;;;;;;5.97;1.10;;;;;;;;;;5361509;26;20005;-39
2024/04/08 01:52:26;;;;;;;5.07;1.40;;;;;;;;;;5323161;26;20005;-39
2024/04/08 01:54:53;;;;;;;2.83;0.85;;;;;;;;;;5336479;26;20410;-39
2024/04/08 01:57:20;;;;;;;10.32;1.17;;;;;;;;;;5346678;26;20005;-39
2024/04/08 01:59:47;;;;;;;3.95;0.82;;;;;;;;;;5347039;26;19997;-39
2024/04/08 02:02:14;;;;;;;2.42;0.93;;;;;;;;;;5347170;26;20004;-39
2024/04/08 02:04:41;;;;;;;4.22;0.90;;;;;;;;;;5346836;26;20034;-39
2024/04/08 02:07:08;;;;;;;2.22;0.82;;;;;;;;;;5346892;26;20008;-39
2024/04/08 02:09:35;;;;;;;6.80;1.10;;;;;;;;;;5346752;26;20328;-40
2024/04/08 02:12:03;;;;;;;5.40;1.33;;;;;;;;;;5346856;26;19997;-39
2024/04/08 02:14:29;;;;;;;7.63;1.00;;;;;;;;;;5346814;26;20024;-39
2024/04/08 02:16:58;;;;;;;6.65;1.13;;;;;;;;;;5346997;26;20555;-39
2024/04/08 02:19:25;;;;;;;4.63;0.90;;;;;;;;;;5346755;26;19993;-39
2024/04/08 02:21:52;;;;;;;2.28;1.05;;;;;;;;;;5346634;26;19997;-39
2024/04/08 02:24:19;;;;;;;5.88;1.10;;;;;;;;;;5345858;26;20005;-39
2024/04/08 02:26:46;;;;;;;4.88;0.90;;;;;;;;;;5358518;26;20350;-39
2024/04/08 02:29:13;;;;;;;2.42;0.98;;;;;;;;;;5366904;26;20408;-39
2024/04/08 02:31:40;;;;;;;5.63;0.77;;;;;;;;;;5381921;26;20007;-41
2024/04/08 02:34:07;;;;;;;4.20;0.70;;;;;;;;;;5382245;26;20007;-39
2024/04/08 02:36:34;;;;;;;4.68;0.90;;;;;;;;;;5374288;26;20000;-39
2024/04/08 02:39:02;;;;;;;2.63;0.80;;;;;;;;;;5360074;26;20001;-39
2024/04/08 02:41:29;;;;;;;4.40;0.80;;;;;;;;;;5364682;26;20015;-39
2024/04/08 02:43:56;;;;;;;1.90;0.85;;;;;;;;;;5344781;26;20000;-39
2024/04/08 02:46:23;;;;;;;4.28;0.80;;;;;;;;;;5345893;26;20078;-39
2024/04/08 02:48:50;;;;;;;2.40;0.88;;;;;;;;;;5345579;26;20368;-39
2024/04/08 02:51:18;;;;;;;7.72;1.00;;;;;;;;;;5364037;26;20004;-39
2024/04/08 02:53:45;;;;;;;2.30;0.70;;;;;;;;;;5385256;26;20093;-39
2024/04/08 02:56:12;;;;;;;4.20;0.90;;;;;;;;;;5396563;26;19999;-39
2024/04/08 02:58:39;;;;;;;2.58;0.60;;;;;;;;;;5397296;26;20000;-39
2024/04/08 03:01:10;;;;;;;6.60;1.00;;;;;;;;;;5390376;26;19997;-39
2024/04/08 03:03:37;;;;;;;3.90;0.98;;;;;;;;;;5381163;26;20004;-39
2024/04/08 03:06:14;;;;;;;4.90;0.95;;;;;;;;;;5381039;26;20004;-39
2024/04/08 03:08:42;;;;;;;1.88;0.70;;;;;;;;;;5381586;26;20035;-39
2024/04/08 03:11:10;;;;;;;2.35;0.80;;;;;;;;;;5381343;26;20361;-39
2024/04/08 03:13:38;;;;;;;1.98;0.60;;;;;;;;;;5381184;26;20011;-39
2024/04/08 03:16:05;;;;;;;2.65;0.75;;;;;;;;;;5381610;26;20010;-39
2024/04/08 03:18:32;;;;;;;1.73;0.60;;;;;;;;;;5381286;26;20074;-39
2024/04/08 03:21:01;;;;;;;2.63;0.60;;;;;;;;;;5381577;26;20000;-39
2024/04/08 03:23:28;;;;;;;2.80;0.80;;;;;;;;;;5381255;26;19996;-39
2024/04/08 03:26:05;;;;;;;1.45;0.63;;;;;;;;;;5381107;26;20345;-39
2024/04/08 03:28:32;;;;;;;2.08;0.70;;;;;;;;;;5381191;26;20101;-39
2024/04/08 03:30:59;;;;;;;3.03;0.57;;;;;;;;;;5380986;26;20014;-39
2024/04/08 03:33:30;;;;;;;2.63;0.70;;;;;;;;;;5381172;26;20031;-39
2024/04/08 03:35:57;;;;;;;1.52;0.50;;;;;;;;;;5380924;26;20011;-39
2024/04/08 03:38:24;;;;;;;2.67;0.60;;;;;;;;;;5381086;26;20007;-40
2024/04/08 03:41:00;;;;;;;1.85;0.70;;;;;;;;;;5381035;26;19997;-39
2024/04/08 03:43:28;;;;;;;3.30;0.50;;;;;;;;;;5379218;26;20000;-39
2024/04/08 03:45:55;;;;;;;2.20;0.65;;;;;;;;;;5380887;26;20350;-39
2024/04/08 03:48:22;;;;;;;1.95;0.80;;;;;;;;;;5380871;26;20074;-39
2024/04/08 03:50:49;;;;;;;3.35;0.75;;;;;;;;;;5380533;26;19996;-39
2024/04/08 03:53:16;;;;;;;1.02;0.40;;;;;;;;;;5380792;26;20524;-40
2024/04/08 03:55:43;;;;;;;1.00;0.57;;;;;;;;;;5380505;26;20126;-39
2024/04/08 03:58:10;;;;;;;3.95;0.80;;;;;;;;;;5380694;26;20000;-39
2024/04/08 04:00:37;;;;;;;2.53;0.70;;;;;;;;;;5379681;26;20474;-39
2024/04/08 04:03:04;;;;;;;1.65;0.68;;;;;;;;;;5380790;26;20000;-39
2024/04/08 04:05:31;;;;;;;4.15;0.70;;;;;;;;;;5380635;26;20000;-39
2024/04/08 04:07:58;;;;;;;1.35;0.50;;;;;;;;;;5380586;26;20000;-39
2024/04/08 04:10:25;;;;;;;2.78;0.60;;;;;;;;;;5380378;26;20000;-39
2024/04/08 04:12:52;;;;;;;1.23;0.50;;;;;;;;;;5380715;26;20000;-39
2024/04/08 04:15:19;;;;;;;1.23;0.50;;;;;;;;;;5380331;26;20054;-40
2024/04/08 04:17:46;;;;;;;1.83;0.60;;;;;;;;;;5380382;26;20012;-39
2024/04/08 04:20:16;;;;;;;2.00;0.60;;;;;;;;;;5380507;26;20008;-39
2024/04/08 04:22:44;;;;;;;4.82;0.60;;;;;;;;;;5380365;26;20008;-39
2024/04/08 04:25:11;;;;;;;2.28;0.50;;;;;;;;;;5380381;26;20000;-39
2024/04/08 04:27:38;;;;;;;1.30;0.60;;;;;;;;;;5380080;26;20000;-39
2024/04/08 04:30:05;;;;;;;3.90;0.63;;;;;;;;;;5380144;26;20000;-39
2024/04/08 04:32:32;;;;;;;1.63;0.70;;;;;;;;;;5380342;26;20037;-39
2024/04/08 04:34:59;;;;;;;1.40;0.45;;;;;;;;;;5380133;26;20073;-39
2024/04/08 04:37:26;;;;;;;3.55;0.80;;;;;;;;;;5380195;26;20041;-39
2024/04/08 04:39:53;;;;;;;2.45;0.70;;;;;;;;;;5380140;26;20055;-39
2024/04/08 04:42:20;;;;;;;1.63;0.60;;;;;;;;;;5380131;26;20112;-39
2024/04/08 04:44:47;;;;;;;1.52;0.70;;;;;;;;;;5380214;26;20012;-39
2024/04/08 04:47:14;;;;;;;2.95;0.60;;;;;;;;;;5379957;26;20012;-39
2024/04/08 04:49:41;;;;;;;1.42;0.80;;;;;;;;;;5379947;26;20008;-39
2024/04/08 04:52:08;;;;;;;1.33;0.73;;;;;;;;;;5380040;26;20008;-39
2024/04/08 04:54:35;;;;;;;4.03;0.75;;;;;;;;;;5379871;26;20069;-39
2024/04/08 04:57:02;;;;;;;1.45;0.70;;;;;;;;;;5379849;26;20337;-39
2024/04/08 04:59:29;;;;;;;0.98;0.60;;;;;;;;;;5379839;26;19996;-39
2024/04/08 05:01:56;;;;;;;1.67;0.50;;;;;;;;;;5379715;26;20077;-39
2024/04/08 05:04:23;;;;;;;1.23;0.50;;;;;;;;;;5380135;26;20000;-39
2024/04/08 05:06:50;;;;;;;1.63;0.60;;;;;;;;;;5379699;26;20438;-39
2024/04/08 05:09:17;;;;;;;1.55;0.60;;;;;;;;;;5379667;26;19996;-39
2024/04/08 05:11:44;;;;;;;1.63;0.50;;;;;;;;;;5380745;26;19996;-39
2024/04/08 05:14:11;;;;;;;3.45;0.70;;;;;;;;;;5383179;26;20000;-39
2024/04/08 05:16:38;;;;;;;2.80;0.60;;;;;;;;;;5383040;26;20000;-39
2024/04/08 05:19:05;;;;;;;1.17;0.60;;;;;;;;;;5383037;26;20086;-39
2024/04/08 05:21:32;;;;;;;2.50;0.65;;;;;;;;;;5382994;26;20008;-39
2024/04/08 05:23:59;;;;;;;1.73;0.60;;;;;;;;;;5382908;26;20404;-39
2024/04/08 05:26:26;;;;;;;1.73;0.70;;;;;;;;;;5382915;26;20015;-39
2024/04/08 05:28:53;;;;;;;4.15;0.80;;;;;;;;;;5382810;26;20001;-39
2024/04/08 05:31:20;;;;;;;2.95;0.77;;;;;;;;;;5382719;26;20343;-39
2024/04/08 05:33:47;;;;;;;0.90;0.47;;;;;;;;;;5383253;26;20070;-39
2024/04/08 05:36:14;;;;;;;1.52;0.60;;;;;;;;;;5382659;26;20007;-39
2024/04/08 05:38:41;;;;;;;0.85;0.50;;;;;;;;;;5382791;26;20069;-39
2024/04/08 05:41:08;;;;;;;0.98;0.50;;;;;;;;;;5382731;26;20099;-39
2024/04/08 05:43:35;;;;;;;2.63;0.77;;;;;;;;;;5382775;26;19996;-39
2024/04/08 05:46:02;;;;;;;2.50;0.50;;;;;;;;;;5382417;26;20465;-39
2024/04/08 05:48:29;;;;;;;1.73;0.50;;;;;;;;;;5382616;26;20007;-39
2024/04/08 05:50:56;;;;;;;0.63;0.50;;;;;;;;;;5382377;26;19996;-39
2024/04/08 05:53:24;;;;;;;1.92;0.60;;;;;;;;;;5382811;26;20330;-39
2024/04/08 05:55:51;;;;;;;1.92;0.68;;;;;;;;;;5382362;26;20007;-39
2024/04/08 05:58:18;;;;;;;2.05;0.65;;;;;;;;;;5382399;26;20461;-40
2024/04/08 06:00:45;;;;;;;1.52;0.68;;;;;;;;;;5380857;26;20454;-39
2024/04/08 06:03:12;;;;;;;1.67;0.60;;;;;;;;;;5380605;26;20348;-39
2024/04/08 06:05:41;;;;;;;1.58;0.50;;;;;;;;;;5382382;26;19996;-39
2024/04/08 06:08:08;;;;;;;1.23;0.60;;;;;;;;;;5382415;26;20011;-39
2024/04/08 06:10:41;;;;;;;2.28;0.52;;;;;;;;;;5382507;26;20006;-39
2024/04/08 06:13:08;;;;;;;1.13;0.60;;;;;;;;;;5382037;26;20000;-39
2024/04/08 06:15:36;;;;;;;1.52;0.70;;;;;;;;;;5382191;26;20069;-39
2024/04/08 06:18:03;;;;;;;2.22;0.75;;;;;;;;;;5382063;26;20519;-39
2024/04/08 06:20:30;;;;;;;0.73;0.52;;;;;;;;;;5380711;26;20465;-39
2024/04/08 06:22:57;;;;;;;1.00;0.50;;;;;;;;;;5381105;26;20074;-39
2024/04/08 06:25:24;;;;;;;1.33;0.60;;;;;;;;;;5381934;26;20004;-39
2024/04/08 06:27:51;;;;;;;0.95;0.50;;;;;;;;;;5381983;26;19996;-39
2024/04/08 06:30:18;;;;;;;1.58;0.65;;;;;;;;;;5381859;26;19996;-39
2024/04/08 06:32:48;;;;;;;3.03;0.75;;;;;;;;;;5382072;26;20000;-39
2024/04/08 06:35:18;;;;;;;3.47;0.82;;;;;;;;;;5381763;26;20011;-39
2024/04/08 06:37:45;;;;;;;3.30;0.93;;;;;;;;;;5381873;26;20469;-39
2024/04/08 06:40:12;;;;;;;4.13;0.82;;;;;;;;;;5381878;26;20008;-39
2024/04/08 06:42:39;;;;;;;1.25;0.68;;;;;;;;;;5381860;26;20011;-39
2024/04/08 06:45:06;;;;;;;1.58;0.63;;;;;;;;;;5381838;26;19996;-39
2024/04/08 06:47:33;;;;;;;2.08;0.73;;;;;;;;;;5381455;26;20591;-39
2024/04/08 06:50:00;;;;;;;2.05;0.80;;;;;;;;;;5381842;26;20004;-39
2024/04/08 06:52:27;;;;;;;1.27;0.70;;;;;;;;;;5381736;26;20007;-39
2024/04/08 06:54:54;;;;;;;2.65;0.65;;;;;;;;;;5381931;26;20004;-39
2024/04/08 06:57:21;;;;;;;1.00;0.60;;;;;;;;;;5381514;26;19996;-39
2024/04/08 06:59:48;;;;;;;1.23;0.52;;;;;;;;;;5381612;26;20352;-39
2024/04/08 07:02:16;;;;;;;1.20;0.63;;;;;;;;;;5381599;26;19996;-39
2024/04/08 07:04:43;;;;;;;0.52;0.47;;;;;;;;;;5381245;26;20327;-39
2024/04/08 07:07:09;;;;;;;3.03;0.80;;;;;;;;;;5381457;26;20020;-39
2024/04/08 07:09:37;;;;;;;2.85;0.70;;;;;;;;;;5381382;26;20020;-39
2024/04/08 07:12:04;;;;;;;3.20;0.63;;;;;;;;;;5381389;26;20004;-39
2024/04/08 07:14:31;;;;;;;1.80;0.68;;;;;;;;;;5381465;26;20000;-39
2024/04/08 07:16:57;;;;;;;1.23;0.63;;;;;;;;;;5379667;26;20043;-39
2024/04/08 07:19:24;;;;;;;2.60;0.80;;;;;;;;;;5381669;26;20035;-39
2024/04/08 07:21:51;;;;;;;1.38;0.50;;;;;;;;;;5381268;26;20000;-39
2024/04/08 07:24:18;;;;;;;0.50;0.40;;;;;;;;;;5381295;26;20523;-39
2024/04/08 07:26:48;;;;;;;1.27;0.50;;;;;;;;;;5380938;26;20339;-39
2024/04/08 07:29:15;;;;;;;1.38;0.60;;;;;;;;;;5381228;26;20000;-39
2024/04/08 07:31:42;;;;;;;1.35;0.60;;;;;;;;;;5381121;26;20012;-39
2024/04/08 07:34:09;;;;;;;2.45;0.65;;;;;;;;;;5380974;26;20125;-39
2024/04/08 07:36:36;;;;;;;1.33;0.70;;;;;;;;;;5379828;26;20404;-40
2024/04/08 07:39:03;;;;;;;3.10;0.70;;;;;;;;;;5380949;26;20008;-41
2024/04/08 07:41:30;;;;;;;1.33;0.70;;;;;;;;;;5381083;26;20446;-39
2024/04/08 07:43:57;;;;;;;0.60;0.40;;;;;;;;;;5380872;26;20028;-39
2024/04/08 07:46:24;;;;;;;1.27;0.63;;;;;;;;;;5380847;26;20000;-39
2024/04/08 07:48:52;;;;;;;1.20;0.60;;;;;;;;;;5380958;26;20474;-39
2024/04/08 07:51:19;;;;;;;2.72;0.75;;;;;;;;;;5380295;26;20011;-39
2024/04/08 07:53:47;;;;;;;2.45;0.63;;;;;;;;;;5380870;26;20008;-39
2024/04/08 07:56:14;;;;;;;1.58;0.75;;;;;;;;;;5381046;26;20011;-39
2024/04/08 07:58:40;;;;;;;1.05;0.50;;;;;;;;;;5380847;26;20072;-39
2024/04/08 08:01:07;;;;;;;1.85;0.77;;;;;;;;;;5380871;26;20000;-39
2024/04/08 08:03:35;;;;;;;1.63;0.70;;;;;;;;;;5381118;26;20010;-39
2024/04/08 08:06:02;;;;;;;1.52;0.90;;;;;;;;;;5380783;26;20007;-40
2024/04/08 08:08:29;;;;;;;1.05;0.60;;;;;;;;;;5380720;26;20000;-39
2024/04/08 08:11:05;;;;;;;1.35;0.60;;;;;;;;;;5380529;26;20032;-39
2024/04/08 08:13:33;;;;;;;1.10;0.50;;;;;;;;;;5380641;26;20013;-39
2024/04/08 08:16:00;;;;;;;1.35;0.60;;;;;;;;;;5380483;26;20008;-39
2024/04/08 08:18:28;;;;;;;2.03;0.68;;;;;;;;;;5380541;26;20015;-39
2024/04/08 08:20:55;;;;;;;1.55;0.63;;;;;;;;;;5380393;26;20069;-39
2024/04/08 08:23:22;;;;;;;1.48;0.63;;;;;;;;;;5380327;26;20342;-39
2024/04/08 08:25:49;;;;;;;1.65;0.70;;;;;;;;;;5380298;26;19996;-39
2024/04/08 08:28:16;;;;;;;1.83;0.60;;;;;;;;;;5380467;26;20681;-39
2024/04/08 08:30:43;;;;;;;1.50;0.60;;;;;;;;;;5380201;26;20409;-39
2024/04/08 08:33:10;;;;;;;1.65;0.80;;;;;;;;;;5380271;26;20090;-39
2024/04/08 08:35:37;;;;;;;1.90;0.68;;;;;;;;;;5380149;26;20000;-39
2024/04/08 08:38:04;;;;;;;1.15;0.60;;;;;;;;;;5378354;26;20334;-39
2024/04/08 08:40:34;;;;;;;0.93;0.60;;;;;;;;;;5380236;26;20069;-39
2024/04/08 08:43:02;;;;;;;1.25;0.60;;;;;;;;;;5380303;26;19996;-39
2024/04/08 08:45:29;;;;;;;0.93;0.50;;;;;;;;;;5380084;26;20006;-39
2024/04/08 08:47:56;;;;;;;4.28;0.60;;;;;;;;;;5379687;26;20069;-39
2024/04/08 08:50:24;;;;;;;1.58;0.70;;;;;;;;;;5379787;26;20470;-39
2024/04/08 08:52:51;;;;;;;1.92;0.80;;;;;;;;;;5379930;26;20442;-39
2024/04/08 08:55:20;;;;;;;1.63;0.60;;;;;;;;;;5379847;26;20069;-39
2024/04/08 08:57:47;;;;;;;1.83;0.50;;;;;;;;;;5379766;26;20011;-39
2024/04/08 09:00:15;;;;;;;1.85;0.50;;;;;;;;;;5379751;26;19996;-39
2024/04/08 09:02:44;;;;;;;0.65;0.50;;;;;;;;;;5377934;26;20415;-39
2024/04/08 09:05:11;;;;;;;1.73;0.60;;;;;;;;;;5378806;26;20036;-39
2024/04/08 09:07:38;;;;;;;1.08;0.50;;;;;;;;;;5378812;26;20000;-39
2024/04/08 09:10:05;;;;;;;1.02;0.50;;;;;;;;;;5379049;26;20733;-39
2024/04/08 09:12:32;;;;;;;1.38;0.60;;;;;;;;;;5379621;26;19996;-39
2024/04/08 09:14:59;;;;;;;1.27;0.50;;;;;;;;;;5379652;26;20004;-39
2024/04/08 09:17:26;;;;;;;1.27;0.60;;;;;;;;;;5379495;26;20007;-39
2024/04/08 09:19:53;;;;;;;1.45;0.60;;;;;;;;;;5379465;26;20069;-39
2024/04/08 09:22:20;;;;;;;0.75;0.47;;;;;;;;;;5379211;26;20523;-39
2024/04/08 09:24:47;;;;;;;0.80;0.50;;;;;;;;;;5379313;26;20473;-39
2024/04/08 09:27:14;;;;;;;1.10;0.73;;;;;;;;;;5379383;26;19996;-39
2024/04/08 09:29:41;;;;;;;0.77;0.57;;;;;;;;;;5376773;26;20051;-39
2024/04/08 09:32:08;;;;;;;1.25;0.57;;;;;;;;;;5378782;26;20004;-39
2024/04/08 09:34:35;;;;;;;1.90;0.60;;;;;;;;;;5378404;26;20023;-39
2024/04/08 09:37:05;;;;;;;0.88;0.60;;;;;;;;;;5379060;26;20008;-39
2024/04/08 09:39:33;;;;;;;2.13;0.70;;;;;;;;;;5377871;26;20076;-39
2024/04/08 09:42:00;;;;;;;1.08;0.55;;;;;;;;;;5378299;26;20105;-39
2024/04/08 09:44:30;;;;;;;1.55;0.70;;;;;;;;;;5379111;26;20120;-39
2024/04/08 09:46:58;;;;;;;1.90;0.60;;;;;;;;;;5378578;26;20065;-39
2024/04/08 09:49:25;;;;;;;2.58;0.80;;;;;;;;;;5376797;26;19997;-39
2024/04/08 09:51:53;;;;;;;4.32;1.10;;;;;;;;;;5378955;26;20004;-38
2024/04/08 09:54:20;;;;;;;3.70;0.70;;;;;;;;;;5379000;26;20008;-38
2024/04/08 09:56:50;;;;;;;1.95;0.82;;;;;;;;;;5378917;26;20363;-39
2024/04/08 09:59:22;;;;;;;3.83;0.90;;;;;;;;;;5380853;26;20004;-39
2024/04/08 10:01:49;;;;;;;1.90;0.75;;;;;;;;;;5382513;26;20007;-41
2024/04/08 10:04:20;;;;;;;2.72;0.63;;;;;;;;;;5382448;26;20405;-39
2024/04/08 10:06:47;;;;;;;4.45;0.70;;;;;;;;;;5382053;26;20757;-39
2024/04/08 10:09:15;;;;;;;2.00;0.73;;;;;;;;;;5382392;26;20011;-39
2024/04/08 10:11:47;;;;;;;1.73;0.70;;;;;;;;;;5382366;26;20446;-39
2024/04/08 10:14:20;;;;;;;2.78;0.85;;;;;;;;;;5382320;26;20007;-39
2024/04/08 10:16:51;;;;;;;1.98;0.73;;;;;;;;;;5393104;26;20004;-39
2024/04/08 10:19:21;;;;;;;2.13;0.70;;;;;;;;;;5398078;26;20370;-38
2024/04/08 10:21:48;;;;;;;3.70;0.80;;;;;;;;;;5394009;26;20008;-38
2024/04/08 10:24:31;;;;;;;3.22;0.65;;;;;;;;;;5398568;26;19999;-38
2024/04/08 10:27:05;;;;;;;2.95;0.90;;;;;;;;;;5398881;26;20019;-38
2024/04/08 10:29:35;;;;;;;0.90;0.60;;;;;;;;;;5396156;26;20484;-40
2024/04/08 10:32:03;;;;;;;1.35;0.63;;;;;;;;;;5396958;26;20000;-40
2024/04/08 10:34:30;;;;;;;1.55;0.60;;;;;;;;;;5399714;26;20000;-40
2024/04/08 10:36:57;;;;;;;4.35;0.70;;;;;;;;;;5400044;26;20004;-40
2024/04/08 10:39:27;;;;;;;1.70;0.85;;;;;;;;;;5397065;26;20000;-40
2024/04/08 10:42:13;;;;;;;0.95;0.50;;;;;;;;;;5398343;26;20371;-40
2024/04/08 10:44:40;;;;;;;2.17;0.80;;;;;;;;;;5399377;26;21857;-39
2024/04/08 10:47:10;;;;;;;3.10;0.75;;;;;;;;;;5392831;26;20036;-41
2024/04/08 10:49:37;;;;;;;2.80;0.80;;;;;;;;;;5390070;26;20012;-39
2024/04/08 10:52:04;;;;;;;1.73;0.80;;;;;;;;;;5380719;26;20009;-40
2024/04/08 10:54:32;;;;;;;4.13;1.10;;;;;;;;;;5380956;26;20018;-38
2024/04/08 10:56:59;;;;;;;2.47;0.90;;;;;;;;;;5376924;26;20011;-40
2024/04/08 10:59:26;;;;;;;2.70;0.77;;;;;;;;;;5381028;26;20058;-40
2024/04/08 11:01:54;;;;;;;5.38;1.00;;;;;;;;;;5380618;26;20025;-38
2024/04/08 11:04:22;;;;;;;4.00;0.90;;;;;;;;;;5380732;26;20433;-39
2024/04/08 11:06:50;;;;;;;2.92;1.00;;;;;;;;;;5381475;26;20078;-40
2024/04/08 11:09:17;;;;;;;4.75;0.90;;;;;;;;;;5380563;26;20011;-40
2024/04/08 11:11:44;;;;;;;3.33;0.73;;;;;;;;;;5375843;26;20018;-40
2024/04/08 11:14:11;;;;;;;3.50;1.00;;;;;;;;;;5381193;26;20007;-41
2024/04/08 11:16:38;;;;;;;3.03;1.00;;;;;;;;;;5380917;26;20000;-41
2024/04/08 11:19:06;;;;;;;4.45;0.85;;;;;;;;;;5381020;26;20000;-40
2024/04/08 11:21:33;;;;;;;1.13;0.63;;;;;;;;;;5381316;26;20843;-38
2024/04/08 11:24:00;;;;;;;2.70;0.85;;;;;;;;;;5381403;26;20000;-39
2024/04/08 11:26:30;;;;;;;2.03;0.85;;;;;;;;;;5381115;26;20074;-40
2024/04/08 11:29:00;;;;;;;4.63;0.85;;;;;;;;;;5381367;26;20095;-40
2024/04/08 11:31:27;;;;;;;4.15;1.05;;;;;;;;;;5381168;26;20000;-40
2024/04/08 11:33:54;;;;;;;3.78;0.90;;;;;;;;;;5381224;26;20044;-39
2024/04/08 11:36:21;;;;;;;3.47;1.00;;;;;;;;;;5380944;26;20000;-40
2024/04/08 11:38:48;;;;;;;3.65;0.90;;;;;;;;;;5381143;26;20000;-40
2024/04/08 11:41:15;;;;;;;2.65;0.73;;;;;;;;;;5381192;26;20011;-40
2024/04/08 11:43:42;;;;;;;3.28;0.85;;;;;;;;;;5381031;26;20006;-40
2024/04/08 11:46:09;;;;;;;3.38;0.80;;;;;;;;;;5380813;26;19997;-40
2024/04/08 11:48:37;;;;;;;2.25;0.80;;;;;;;;;;5380878;26;19996;-41
2024/04/08 11:51:04;;;;;;;3.53;1.10;;;;;;;;;;5380687;26;20019;-40
2024/04/08 11:53:31;;;;;;;2.92;0.90;;;;;;;;;;5380993;26;19996;-40
2024/04/08 11:55:59;;;;;;;2.28;0.90;;;;;;;;;;5380881;26;20015;-40
2024/04/08 11:58:26;;;;;;;6.03;1.10;;;;;;;;;;5380936;26;19993;-41
2024/04/08 12:00:53;;;;;;;2.05;0.77;;;;;;;;;;5380859;26;20533;-40
2024/04/08 12:03:20;;;;;;;2.55;0.80;;;;;;;;;;5380784;26;20047;-40
2024/04/08 12:05:47;;;;;;;2.38;0.90;;;;;;;;;;5380613;26;20011;-40
2024/04/08 12:08:14;;;;;;;6.55;1.20;;;;;;;;;;5380695;26;20011;-41
2024/04/08 12:10:41;;;;;;;7.80;1.73;;;;;;;;;;5380690;26;20006;-40
2024/04/08 12:13:16;;;;;;;8.57;1.83;;;;;;;;;;5380748;26;20033;-40
2024/04/08 12:15:43;;;;;;;12.23;2.75;;;;;;;;;;5380385;26;20329;-40
2024/04/08 12:18:10;;;;;;;6.97;2.13;;;;;;;;;;5380545;26;20372;-40
2024/04/08 12:20:37;;;;;;;8.85;1.83;;;;;;;;;;5380183;26;20069;-40
2024/04/08 12:23:06;;;;;;;11.63;2.15;;;;;;;;;;5380090;26;19997;-40
2024/04/08 12:25:33;;;;;;;8.30;2.05;;;;;;;;;;5380574;26;20008;-40
2024/04/08 12:28:00;;;;;;;8.93;2.10;;;;;;;;;;5380375;26;20074;-40
2024/04/08 12:30:29;;;;;;;7.55;2.03;;;;;;;;;;5380385;26;20072;-40
2024/04/08 12:32:56;;;;;;;5.93;1.75;;;;;;;;;;5380367;26;20032;-40
2024/04/08 12:35:23;;;;;;;9.13;2.40;;;;;;;;;;5380199;26;20011;-40
2024/04/08 12:37:50;;;;;;;7.60;2.10;;;;;;;;;;5380340;26;20012;-40
2024/04/08 12:40:17;;;;;;;7.22;1.92;;;;;;;;;;5380207;26;20006;-40
2024/04/08 12:42:44;;;;;;;4.35;1.65;;;;;;;;;;5380336;26;20033;-40
2024/04/08 12:45:11;;;;;;;5.00;1.95;;;;;;;;;;5380125;26;19996;-39
2024/04/08 12:47:38;;;;;;;7.07;1.75;;;;;;;;;;5380143;26;20011;-39
2024/04/08 12:50:06;;;;;;;7.47;1.90;;;;;;;;;;5345353;26;20466;-39
2024/04/08 12:52:33;;;;;;;5.75;1.65;;;;;;;;;;5345363;26;20000;-39
2024/04/08 12:55:00;;;;;;;6.95;1.60;;;;;;;;;;5345037;26;20510;-39
2024/04/08 12:57:27;;;;;;;8.55;1.58;;;;;;;;;;5345022;26;19997;-39
2024/04/08 12:59:54;;;;;;;6.65;1.88;;;;;;;;;;5344931;26;20012;-39
2024/04/08 13:02:25;;;;;;;6.10;1.52;;;;;;;;;;5344894;26;20029;-39
2024/04/08 13:04:53;;;;;;;7.97;1.85;;;;;;;;;;5344683;26;19997;-39
2024/04/08 13:07:26;;;;;;;10.85;1.70;;;;;;;;;;5344849;26;20079;-39
2024/04/08 13:09:56;;;;;;;7.68;1.50;;;;;;;;;;5344788;26;20094;-39
2024/04/08 13:12:23;;;;;;;6.13;1.60;;;;;;;;;;5344533;26;20055;-39
2024/04/08 13:14:50;;;;;;;7.93;1.50;;;;;;;;;;5343054;26;20008;-39
2024/04/08 13:17:17;;;;;;;4.78;1.50;;;;;;;;;;5344737;26;20350;-39
2024/04/08 13:19:44;;;;;;;3.95;1.50;;;;;;;;;;5344692;26;20001;-39
2024/04/08 13:22:11;;;;;;;3.47;1.20;;;;;;;;;;5344554;26;20011;-39
2024/04/08 13:24:38;;;;;;;3.53;1.60;;;;;;;;;;5344852;26;20016;-39
2024/04/08 13:27:05;;;;;;;3.35;1.30;;;;;;;;;;5344391;26;20001;-39
2024/04/08 13:29:32;;;;;;;5.32;1.27;;;;;;;;;;5344839;26;20001;-39
2024/04/08 13:31:59;;;;;;;5.72;1.38;;;;;;;;;;5344493;26;19998;-39
2024/04/08 13:34:26;;;;;;;3.60;1.40;;;;;;;;;;5347824;26;20070;-39
2024/04/08 13:36:53;;;;;;;3.80;1.38;;;;;;;;;;5347600;26;19993;-39
2024/04/08 13:39:20;;;;;;;4.15;1.23;;;;;;;;;;5347758;26;20510;-39
2024/04/08 13:41:48;;;;;;;3.58;1.08;;;;;;;;;;5347730;26;19997;-39
2024/04/08 13:44:15;;;;;;;4.72;1.38;;;;;;;;;;5347676;26;20033;-39
2024/04/08 13:46:42;;;;;;;3.97;1.00;;;;;;;;;;5347594;26;20001;-39
2024/04/08 13:49:09;;;;;;;5.70;1.20;;;;;;;;;;5347885;26;20439;-39
2024/04/08 13:51:36;;;;;;;5.53;1.48;;;;;;;;;;5345954;26;20004;-39
2024/04/08 13:54:04;;;;;;;10.13;1.70;;;;;;;;;;5347536;26;20442;-39
2024/04/08 13:56:32;;;;;;;11.07;1.52;;;;;;;;;;5347588;26;20001;-39
2024/04/08 13:58:59;;;;;;;7.32;2.00;;;;;;;;;;5347484;26;19997;-39
2024/04/08 14:01:26;;;;;;;12.63;1.85;;;;;;;;;;5347471;26;20338;-39
2024/04/08 14:03:58;;;;;;;10.57;1.70;;;;;;;;;;5347522;26;20008;-39
2024/04/08 14:06:25;;;;;;;5.23;1.20;;;;;;;;;;5347307;26;20011;-39
2024/04/08 14:08:52;;;;;;;7.72;1.50;;;;;;;;;;5347287;26;19993;-39
2024/04/08 14:11:19;;;;;;;9.32;1.70;;;;;;;;;;5347387;26;20005;-39
2024/04/08 14:13:46;;;;;;;9.07;1.63;;;;;;;;;;5347685;26;20008;-39
2024/04/08 14:16:13;;;;;;;6.65;1.50;;;;;;;;;;5347180;26;20001;-39
2024/04/08 14:18:40;;;;;;;9.32;1.55;;;;;;;;;;5347257;26;20011;-39
2024/04/08 14:21:09;;;;;;;14.20;1.80;;;;;;;;;;5347701;26;20071;-39
2024/04/08 14:23:36;;;;;;;8.07;1.42;;;;;;;;;;5347232;26;20462;-39
2024/04/08 14:26:03;;;;;;;4.10;1.20;;;;;;;;;;5347056;26;20071;-39
2024/04/08 14:28:30;;;;;;;8.52;1.65;;;;;;;;;;5347206;26;19997;-39
2024/04/08 14:30:57;;;;;;;6.85;1.70;;;;;;;;;;5347066;26;19997;-39
2024/04/08 14:33:24;;;;;;;4.90;1.50;;;;;;;;;;5347011;26;20795;-39
2024/04/08 14:35:51;;;;;;;8.52;1.42;;;;;;;;;;5347278;26;19997;-39
2024/04/08 14:38:19;;;;;;;5.80;1.50;;;;;;;;;;5347213;26;20032;-39
2024/04/08 14:40:46;;;;;;;5.30;1.50;;;;;;;;;;5346889;26;19997;-39
2024/04/08 14:43:13;;;;;;;7.28;1.42;;;;;;;;;;5346893;26;20508;-43
2024/04/08 14:45:41;;;;;;;5.95;1.20;;;;;;;;;;5346461;26;19996;-39